Terminal Aerodrome Forecast
Issued by NWS

Current Version | Previous Version | Text Only | Print | Product List | Glossary Off
Versions: 1 2 3 4 5 6 7 8 9 10 11 12 13 14 15 16 17 18 19 20 21 22 23 24

263
FTUS41 KRLX 230539
TAFCKB
TAF
KCKB 230539Z 2306/2406 00000KT 6SM BR SKC
     FM230900 00000KT 2SM BR SCT003
     FM231200 VRB03KT 4SM BR SCT015
     FM231400 24004KT P6SM SCT030
     FM231700 26005KT P6SM SCT045=

USA.gov is the U.S. government's official web portal to all federal, state and local government web resources and services.